»·PEaware :: N129WS KSMX-KBFL

N129WS :: KSMX-KBFL

FLIGHT INFORMATION

Flight Status: Arrived
Operator: Privately registered:
United States
More flights under this callsign
Pilot: Michael M. (12217)
Aircraft: CESSNA 172 SKYHAWK
(C172)
More flights by this aircraft type
Origin: KSMX Santa Maria Pub/Capt Hancock
United States
Destination: KBFL Meadows
United States
More flights between these airports :: More routes between these airports
Route: +
File this flight plan on PilotEdge
Remarks: CAT 5 EXAM
Altitude:
(Current/Filed)
0ft
Speed:
(Current/Filed)
110kts
Departed: 30-Oct-16 04:55 PM
Arrived: 30-Oct-16 05:45 PM
Distance/Time
Traveled:
76nm/0:50
Distance/Time
To Go:
Arrived

Flight Plot

Page will automatically refresh every two minutes.


Map Options




Map Legend


Flown Route
Filed Route
Departure Airport
Arrival Airport
Navaid (VOR, NDB)
Fix

Horizontal Profiles

Position Reports

Time Latitude Longitude Heading Altitude Ground
Speed
30-Oct-16 16:37 34.894378 -120.443022 315 264ft 0kts
30-Oct-16 16:38 34.894378 -120.443022 315 264ft 0kts
30-Oct-16 16:39 34.894378 -120.443022 315 264ft 0kts
30-Oct-16 16:40 34.894378 -120.443022 315 264ft 0kts
30-Oct-16 16:41 34.894378 -120.443022 315 264ft 0kts
30-Oct-16 16:42 34.894378 -120.443022 315 264ft 0kts
30-Oct-16 16:43 34.894028 -120.444386 289 264ft 12kts
30-Oct-16 16:44 34.893367 -120.445086 223 264ft 0kts
30-Oct-16 16:45 34.893334 -120.445132 233 264ft 0kts
30-Oct-16 16:46 34.893334 -120.445132 233 264ft 0kts
30-Oct-16 16:47 34.893334 -120.445132 233 264ft 0kts
30-Oct-16 16:48 34.893334 -120.445132 233 264ft 0kts
30-Oct-16 16:49 34.893486 -120.446751 319 264ft 36kts
30-Oct-16 16:50 34.906382 -120.458599 317 832ft 82kts
30-Oct-16 16:51 34.919098 -120.452069 128 1659ft 94kts
30-Oct-16 16:52 34.909606 -120.427281 105 2415ft 102kts
30-Oct-16 16:53 34.905686 -120.393307 108 3012ft 115kts
30-Oct-16 16:54 34.892576 -120.359381 143 3258ft 119kts
30-Oct-16 16:55 34.899128 -120.329846 43 3434ft 129kts
30-Oct-16 16:56 34.923808 -120.306100 43 4085ft 92kts
30-Oct-16 16:57 34.940026 -120.285242 42 4879ft 88kts
30-Oct-16 16:58 34.959698 -120.260516 47 5410ft 93kts
30-Oct-16 16:59 34.975728 -120.238041 57 6187ft 88kts
30-Oct-16 17:00 34.986570 -120.211492 64 6921ft 85kts
30-Oct-16 17:01 34.996161 -120.186814 63 7697ft 76kts
30-Oct-16 17:02 35.006616 -120.160926 64 7679ft 103kts
30-Oct-16 17:03 35.019699 -120.130844 67 7401ft 98kts
30-Oct-16 17:04 35.031562 -120.097772 65 7402ft 111kts
30-Oct-16 17:05 35.044796 -120.063112 64 7401ft 114kts
30-Oct-16 17:06 35.058412 -120.028130 64 7401ft 114kts
30-Oct-16 17:07 35.072057 -119.993252 64 7401ft 114kts
30-Oct-16 17:08 35.085842 -119.958039 64 7372ft 112kts
30-Oct-16 17:09 35.098508 -119.925667 64 7373ft 109kts
30-Oct-16 17:10 35.110612 -119.894717 64 7426ft 113kts
30-Oct-16 17:11 35.124856 -119.858261 64 7424ft 122kts
30-Oct-16 17:12 35.139566 -119.820559 64 7423ft 123kts
30-Oct-16 17:13 35.150568 -119.792333 64 7423ft 123kts
30-Oct-16 17:14 35.165328 -119.754428 64 7423ft 123kts
30-Oct-16 17:15 35.179905 -119.716951 64 7419ft 115kts
30-Oct-16 17:16 35.192775 -119.683797 64 7422ft 104kts
30-Oct-16 17:17 35.204519 -119.653535 64 7423ft 101kts
30-Oct-16 17:18 35.216524 -119.622578 64 7432ft 101kts
30-Oct-16 17:19 35.228560 -119.591554 64 7432ft 101kts
30-Oct-16 17:20 35.240589 -119.560582 64 7433ft 101kts
30-Oct-16 17:21 35.252798 -119.529035 64 7433ft 102kts
30-Oct-16 17:22 35.264975 -119.497523 64 7432ft 103kts
30-Oct-16 17:23 35.277220 -119.465805 64 7432ft 103kts
30-Oct-16 17:24 35.289466 -119.434054 64 7432ft 103kts
30-Oct-16 17:25 35.301649 -119.402433 64 7432ft 103kts
30-Oct-16 17:26 35.313839 -119.370763 64 7420ft 104kts
30-Oct-16 17:27 35.327659 -119.335008 64 6554ft 128kts
30-Oct-16 17:28 35.342504 -119.296531 65 5551ft 122kts
30-Oct-16 17:29 35.355943 -119.261511 65 4600ft 119kts
30-Oct-16 17:30 35.367291 -119.225370 74 3615ft 117kts
30-Oct-16 17:31 35.375967 -119.188960 74 2917ft 94kts
30-Oct-16 17:32 35.381907 -119.163964 73 2936ft 74kts
30-Oct-16 17:33 35.387430 -119.140688 73 2934ft 80kts
30-Oct-16 17:34 35.392986 -119.116702 80 2930ft 77kts
30-Oct-16 17:35 35.394625 -119.090879 85 2200ft 108kts
30-Oct-16 17:36 35.399457 -119.066812 79 1693ft 62kts
30-Oct-16 17:37 35.407190 -119.049424 51 1350ft 70kts
30-Oct-16 17:38 35.418983 -119.039305 340 775ft 71kts
30-Oct-16 17:39 35.431406 -119.053282 316 569ft 59kts
30-Oct-16 17:40 35.436300 -119.057062 105 509ft 7kts
30-Oct-16 17:41 35.434511 -119.054773 134 509ft 0kts
30-Oct-16 17:42 35.432757 -119.052622 134 509ft 1kts

Navigation Log

Ident Type
Flight plan parsing failed, navigation log unavailable